sensor_id;sensor_type;location;lat;lon;timestamp;pressure;altitude;pressure_sealevel;temperature;humidity
48530;BME280;34927;37.302;-121.982;2022-10-22T00:00:51;100345.0;;;25.49;39.92
48530;BME280;34927;37.302;-121.982;2022-10-22T00:01:56;100344.0;;;25.40;40.05
48530;BME280;34927;37.302;-121.982;2022-10-22T00:03:02;100342.0;;;25.50;39.90
48530;BME280;34927;37.302;-121.982;2022-10-22T00:04:06;100337.0;;;25.43;40.04
48530;BME280;34927;37.302;-121.982;2022-10-22T00:05:12;100336.0;;;25.45;40.00
48530;BME280;34927;37.302;-121.982;2022-10-22T00:06:16;100333.0;;;25.44;40.09
48530;BME280;34927;37.302;-121.982;2022-10-22T00:07:22;100334.0;;;25.43;40.09
48530;BME280;34927;37.302;-121.982;2022-10-22T00:08:27;100334.0;;;25.46;40.05
48530;BME280;34927;37.302;-121.982;2022-10-22T00:09:32;100329.0;;;25.43;40.01
48530;BME280;34927;37.302;-121.982;2022-10-22T00:10:37;100328.0;;;25.55;39.88
48530;BME280;34927;37.302;-121.982;2022-10-22T00:11:42;100327.0;;;25.46;39.99
48530;BME280;34927;37.302;-121.982;2022-10-22T00:12:46;100327.0;;;25.56;39.88
48530;BME280;34927;37.302;-121.982;2022-10-22T00:13:51;100330.0;;;25.55;39.88
48530;BME280;34927;37.302;-121.982;2022-10-22T00:14:56;100331.0;;;25.47;40.11
48530;BME280;34927;37.302;-121.982;2022-10-22T00:16:02;100331.0;;;25.51;39.96
48530;BME280;34927;37.302;-121.982;2022-10-22T00:17:06;100329.0;;;25.55;39.95
48530;BME280;34927;37.302;-121.982;2022-10-22T00:18:12;100328.0;;;25.48;40.05
48530;BME280;34927;37.302;-121.982;2022-10-22T00:19:23;100326.0;;;25.59;39.79
48530;BME280;34927;37.302;-121.982;2022-10-22T00:20:27;100327.0;;;25.52;40.08
48530;BME280;34927;37.302;-121.982;2022-10-22T00:21:32;100327.0;;;25.49;40.06
48530;BME280;34927;37.302;-121.982;2022-10-22T00:22:36;100327.0;;;25.33;40.37
48530;BME280;34927;37.302;-121.982;2022-10-22T00:23:42;100324.0;;;25.29;40.34
48530;BME280;34927;37.302;-121.982;2022-10-22T00:24:46;100323.0;;;25.13;40.64
48530;BME280;34927;37.302;-121.982;2022-10-22T00:25:53;100324.0;;;25.17;40.59
48530;BME280;34927;37.302;-121.982;2022-10-22T00:26:57;100329.0;;;25.28;40.30
48530;BME280;34927;37.302;-121.982;2022-10-22T00:28:02;100332.0;;;25.27;40.18
48530;BME280;34927;37.302;-121.982;2022-10-22T00:29:07;100336.0;;;25.24;40.25
48530;BME280;34927;37.302;-121.982;2022-10-22T00:30:12;100333.0;;;25.24;40.15
48530;BME280;34927;37.302;-121.982;2022-10-22T00:31:17;100329.0;;;25.22;40.21
48530;BME280;34927;37.302;-121.982;2022-10-22T00:32:21;100326.0;;;25.23;40.29
48530;BME280;34927;37.302;-121.982;2022-10-22T00:33:28;100321.0;;;25.19;40.42
48530;BME280;34927;37.302;-121.982;2022-10-22T00:34:31;100323.0;;;25.16;40.34
48530;BME280;34927;37.302;-121.982;2022-10-22T00:35:36;100323.0;;;25.28;40.27
48530;BME280;34927;37.302;-121.982;2022-10-22T00:36:41;100323.0;;;25.28;40.11
48530;BME280;34927;37.302;-121.982;2022-10-22T00:37:46;100323.0;;;25.32;40.05
48530;BME280;34927;37.302;-121.982;2022-10-22T00:38:52;100323.0;;;25.35;40.01
48530;BME280;34927;37.302;-121.982;2022-10-22T00:39:56;100320.0;;;25.31;40.02
48530;BME280;34927;37.302;-121.982;2022-10-22T00:41:02;100322.0;;;25.30;40.17
48530;BME280;34927;37.302;-121.982;2022-10-22T00:42:09;100318.0;;;25.31;40.03
48530;BME280;34927;37.302;-121.982;2022-10-22T00:43:18;100317.0;;;25.30;40.11
48530;BME280;34927;37.302;-121.982;2022-10-22T00:45:36;100310.0;;;25.30;40.14
48530;BME280;34927;37.302;-121.982;2022-10-22T00:46:41;100311.0;;;25.29;40.12
48530;BME280;34927;37.302;-121.982;2022-10-22T00:47:52;100313.0;;;25.38;39.89
48530;BME280;34927;37.302;-121.982;2022-10-22T00:48:59;100316.0;;;25.37;39.88
48530;BME280;34927;37.302;-121.982;2022-10-22T00:50:04;100316.0;;;25.48;39.70
48530;BME280;34927;37.302;-121.982;2022-10-22T00:51:07;100317.0;;;25.53;39.54
48530;BME280;34927;37.302;-121.982;2022-10-22T00:52:12;100316.0;;;25.34;39.96
48530;BME280;34927;37.302;-121.982;2022-10-22T00:53:19;100315.0;;;25.33;40.06
48530;BME280;34927;37.302;-121.982;2022-10-22T00:54:22;100316.0;;;25.49;39.75
48530;BME280;34927;37.302;-121.982;2022-10-22T00:55:27;100316.0;;;25.44;39.87
48530;BME280;34927;37.302;-121.982;2022-10-22T00:56:32;100314.0;;;25.44;39.83
48530;BME280;34927;37.302;-121.982;2022-10-22T00:57:36;100314.0;;;25.53;39.62
48530;BME280;34927;37.302;-121.982;2022-10-22T00:58:45;100314.0;;;25.46;39.68
48530;BME280;34927;37.302;-121.982;2022-10-22T00:59:52;100319.0;;;25.43;39.77
48530;BME280;34927;37.302;-121.982;2022-10-22T01:00:57;100319.0;;;25.37;39.87
48530;BME280;34927;37.302;-121.982;2022-10-22T01:02:01;100322.0;;;25.44;39.78
48530;BME280;34927;37.302;-121.982;2022-10-22T01:03:07;100323.0;;;25.50;39.56
48530;BME280;34927;37.302;-121.982;2022-10-22T01:04:11;100327.0;;;25.57;39.47
48530;BME280;34927;37.302;-121.982;2022-10-22T01:05:17;100330.0;;;25.41;39.81
48530;BME280;34927;37.302;-121.982;2022-10-22T01:06:25;100332.0;;;25.35;39.99
48530;BME280;34927;37.302;-121.982;2022-10-22T01:07:42;100329.0;;;25.21;40.13
48530;BME280;34927;37.302;-121.982;2022-10-22T01:08:55;100328.0;;;25.17;40.28
48530;BME280;34927;37.302;-121.982;2022-10-22T01:10:06;100331.0;;;25.11;40.37
48530;BME280;34927;37.302;-121.982;2022-10-22T01:11:20;100332.0;;;25.16;40.31
48530;BME280;34927;37.302;-121.982;2022-10-22T01:12:35;100332.0;;;25.16;40.38
48530;BME280;34927;37.302;-121.982;2022-10-22T01:13:51;100329.0;;;25.06;40.62
48530;BME280;34927;37.302;-121.982;2022-10-22T01:15:06;100330.0;;;25.10;40.45
48530;BME280;34927;37.302;-121.982;2022-10-22T01:16:17;100334.0;;;25.12;40.44
48530;BME280;34927;37.302;-121.982;2022-10-22T01:17:26;100334.0;;;25.17;40.33
48530;BME280;34927;37.302;-121.982;2022-10-22T01:18:36;100331.0;;;25.24;40.18
48530;BME280;34927;37.302;-121.982;2022-10-22T01:19:55;100331.0;;;25.30;40.13
48530;BME280;34927;37.302;-121.982;2022-10-22T01:21:11;100328.0;;;25.26;40.23
48530;BME280;34927;37.302;-121.982;2022-10-22T01:22:21;100326.0;;;25.21;40.27
48530;BME280;34927;37.302;-121.982;2022-10-22T01:23:47;100325.0;;;24.98;40.69
48530;BME280;34927;37.302;-121.982;2022-10-22T01:24:57;100325.0;;;24.91;40.82
48530;BME280;34927;37.302;-121.982;2022-10-22T01:26:08;100324.0;;;24.92;40.68
48530;BME280;34927;37.302;-121.982;2022-10-22T01:27:27;100318.0;;;25.15;40.27
48530;BME280;34927;37.302;-121.982;2022-10-22T01:29:48;100313.0;;;25.36;40.09
48530;BME280;34927;37.302;-121.982;2022-10-22T01:30:57;100313.0;;;25.33;40.25
48530;BME280;34927;37.302;-121.982;2022-10-22T01:32:05;100316.0;;;25.26;40.50
48530;BME280;34927;37.302;-121.982;2022-10-22T01:33:14;100315.0;;;25.24;40.61
48530;BME280;34927;37.302;-121.982;2022-10-22T01:34:22;100317.0;;;25.31;40.44
48530;BME280;34927;37.302;-121.982;2022-10-22T01:35:30;100316.0;;;25.34;40.45
48530;BME280;34927;37.302;-121.982;2022-10-22T01:36:37;100315.0;;;25.32;40.42
48530;BME280;34927;37.302;-121.982;2022-10-22T01:37:45;100317.0;;;25.58;39.99
48530;BME280;34927;37.302;-121.982;2022-10-22T01:38:53;100318.0;;;25.52;40.32
48530;BME280;34927;37.302;-121.982;2022-10-22T01:39:57;100318.0;;;25.48;40.44
48530;BME280;34927;37.302;-121.982;2022-10-22T01:41:02;100319.0;;;25.38;40.61
48530;BME280;34927;37.302;-121.982;2022-10-22T01:42:07;100318.0;;;25.34;40.67
48530;BME280;34927;37.302;-121.982;2022-10-22T01:43:12;100319.0;;;25.32;40.72
48530;BME280;34927;37.302;-121.982;2022-10-22T01:44:26;100319.0;;;25.46;40.66
48530;BME280;34927;37.302;-121.982;2022-10-22T01:45:34;100321.0;;;25.38;40.75
48530;BME280;34927;37.302;-121.982;2022-10-22T01:46:42;100319.0;;;25.30;41.04
48530;BME280;34927;37.302;-121.982;2022-10-22T01:47:55;100320.0;;;25.26;40.99
48530;BME280;34927;37.302;-121.982;2022-10-22T01:49:12;100323.0;;;25.28;40.91
48530;BME280;34927;37.302;-121.982;2022-10-22T01:50:33;100326.0;;;25.39;40.73
48530;BME280;34927;37.302;-121.982;2022-10-22T01:51:51;100326.0;;;25.37;40.81
48530;BME280;34927;37.302;-121.982;2022-10-22T01:53:13;100324.0;;;25.29;41.12
48530;BME280;34927;37.302;-121.982;2022-10-22T01:54:28;100325.0;;;25.29;41.29
48530;BME280;34927;37.302;-121.982;2022-10-22T01:55:40;100324.0;;;25.22;41.43
48530;BME280;34927;37.302;-121.982;2022-10-22T01:56:55;100323.0;;;25.35;41.16
48530;BME280;34927;37.302;-121.982;2022-10-22T01:58:09;100322.0;;;25.33;41.17
48530;BME280;34927;37.302;-121.982;2022-10-22T01:59:28;100317.0;;;25.36;41.18
48530;BME280;34927;37.302;-121.982;2022-10-22T02:00:41;100314.0;;;25.35;41.28
48530;BME280;34927;37.302;-121.982;2022-10-22T02:01:53;100312.0;;;25.28;41.46
48530;BME280;34927;37.302;-121.982;2022-10-22T02:03:08;100313.0;;;25.50;40.94
48530;BME280;34927;37.302;-121.982;2022-10-22T02:04:21;100311.0;;;25.31;41.20
48530;BME280;34927;37.302;-121.982;2022-10-22T02:05:37;100315.0;;;25.27;41.14
48530;BME280;34927;37.302;-121.982;2022-10-22T02:06:49;100322.0;;;25.19;41.47
48530;BME280;34927;37.302;-121.982;2022-10-22T02:08:02;100329.0;;;25.17;41.72
48530;BME280;34927;37.302;-121.982;2022-10-22T02:09:07;100335.0;;;25.18;42.04
48530;BME280;34927;37.302;-121.982;2022-10-22T02:10:12;100337.0;;;25.18;42.18
48530;BME280;34927;37.302;-121.982;2022-10-22T02:11:16;100338.0;;;25.19;42.02
48530;BME280;34927;37.302;-121.982;2022-10-22T02:12:22;100337.0;;;25.18;42.07
48530;BME280;34927;37.302;-121.982;2022-10-22T02:13:29;100337.0;;;25.18;42.01
48530;BME280;34927;37.302;-121.982;2022-10-22T02:14:40;100341.0;;;25.17;42.10
48530;BME280;34927;37.302;-121.982;2022-10-22T02:15:50;100341.0;;;25.14;42.08
48530;BME280;34927;37.302;-121.982;2022-10-22T02:16:58;100340.0;;;25.18;42.02
48530;BME280;34927;37.302;-121.982;2022-10-22T02:18:02;100338.0;;;25.09;42.21
48530;BME280;34927;37.302;-121.982;2022-10-22T02:19:14;100341.0;;;25.05;42.34
48530;BME280;34927;37.302;-121.982;2022-10-22T02:20:25;100347.0;;;25.07;42.30
48530;BME280;34927;37.302;-121.982;2022-10-22T02:21:32;100352.0;;;25.03;42.41
48530;BME280;34927;37.302;-121.982;2022-10-22T02:22:37;100359.0;;;25.05;42.30
48530;BME280;34927;37.302;-121.982;2022-10-22T02:23:42;100366.0;;;25.12;42.22
48530;BME280;34927;37.302;-121.982;2022-10-22T02:24:48;100375.0;;;25.39;41.85
48530;BME280;34927;37.302;-121.982;2022-10-22T02:25:59;100380.0;;;25.12;42.61
48530;BME280;34927;37.302;-121.982;2022-10-22T02:27:11;100387.0;;;25.15;42.63
48530;BME280;34927;37.302;-121.982;2022-10-22T02:28:25;100392.0;;;25.16;42.52
48530;BME280;34927;37.302;-121.982;2022-10-22T02:29:35;100397.0;;;25.09;42.63
48530;BME280;34927;37.302;-121.982;2022-10-22T02:30:45;100402.0;;;25.09;42.70
48530;BME280;34927;37.302;-121.982;2022-10-22T02:31:53;100403.0;;;25.04;42.64
48530;BME280;34927;37.302;-121.982;2022-10-22T02:33:05;100401.0;;;25.17;42.50
48530;BME280;34927;37.302;-121.982;2022-10-22T02:34:14;100400.0;;;25.22;42.42
48530;BME280;34927;37.302;-121.982;2022-10-22T02:35:24;100405.0;;;24.98;42.93
48530;BME280;34927;37.302;-121.982;2022-10-22T02:36:31;100412.0;;;24.99;42.89
48530;BME280;34927;37.302;-121.982;2022-10-22T02:37:38;100413.0;;;24.86;43.19
48530;BME280;34927;37.302;-121.982;2022-10-22T02:38:42;100414.0;;;24.92;43.01
48530;BME280;34927;37.302;-121.982;2022-10-22T02:39:47;100418.0;;;24.93;43.02
48530;BME280;34927;37.302;-121.982;2022-10-22T02:40:52;100422.0;;;25.02;42.82
48530;BME280;34927;37.302;-121.982;2022-10-22T02:41:57;100427.0;;;25.00;42.77
48530;BME280;34927;37.302;-121.982;2022-10-22T02:43:04;100424.0;;;25.00;42.78
48530;BME280;34927;37.302;-121.982;2022-10-22T02:44:09;100422.0;;;24.88;43.06
48530;BME280;34927;37.302;-121.982;2022-10-22T02:45:11;100423.0;;;24.87;43.05
48530;BME280;34927;37.302;-121.982;2022-10-22T02:46:16;100424.0;;;24.94;42.96
48530;BME280;34927;37.302;-121.982;2022-10-22T02:47:21;100427.0;;;24.95;42.76
48530;BME280;34927;37.302;-121.982;2022-10-22T02:48:26;100422.0;;;25.12;42.29
48530;BME280;34927;37.302;-121.982;2022-10-22T02:49:32;100423.0;;;25.09;42.31
48530;BME280;34927;37.302;-121.982;2022-10-22T02:50:37;100425.0;;;24.99;42.62
48530;BME280;34927;37.302;-121.982;2022-10-22T02:51:41;100429.0;;;24.91;42.96
48530;BME280;34927;37.302;-121.982;2022-10-22T02:52:46;100431.0;;;24.90;43.03
48530;BME280;34927;37.302;-121.982;2022-10-22T02:53:52;100436.0;;;24.93;42.95
48530;BME280;34927;37.302;-121.982;2022-10-22T02:54:56;100440.0;;;24.96;42.94
48530;BME280;34927;37.302;-121.982;2022-10-22T02:56:02;100438.0;;;25.04;42.67
48530;BME280;34927;37.302;-121.982;2022-10-22T02:57:06;100433.0;;;25.21;42.22
48530;BME280;34927;37.302;-121.982;2022-10-22T02:58:12;100435.0;;;25.01;42.79
48530;BME280;34927;37.302;-121.982;2022-10-22T02:59:17;100439.0;;;24.98;42.94
48530;BME280;34927;37.302;-121.982;2022-10-22T03:00:21;100442.0;;;24.82;43.32
48530;BME280;34927;37.302;-121.982;2022-10-22T03:01:26;100440.0;;;24.93;43.05
48530;BME280;34927;37.302;-121.982;2022-10-22T03:02:32;100434.0;;;24.93;43.16
48530;BME280;34927;37.302;-121.982;2022-10-22T03:03:36;100433.0;;;24.86;43.22
48530;BME280;34927;37.302;-121.982;2022-10-22T03:04:42;100433.0;;;24.86;43.21
48530;BME280;34927;37.302;-121.982;2022-10-22T03:05:47;100433.0;;;25.13;42.58
48530;BME280;34927;37.302;-121.982;2022-10-22T03:06:52;100434.0;;;25.09;42.69
48530;BME280;34927;37.302;-121.982;2022-10-22T03:07:57;100437.0;;;24.89;43.26
48530;BME280;34927;37.302;-121.982;2022-10-22T03:09:01;100439.0;;;24.84;43.19
48530;BME280;34927;37.302;-121.982;2022-10-22T03:10:07;100444.0;;;24.97;42.95
48530;BME280;34927;37.302;-121.982;2022-10-22T03:11:12;100442.0;;;25.02;42.78
48530;BME280;34927;37.302;-121.982;2022-10-22T03:12:16;100439.0;;;24.96;42.90
48530;BME280;34927;37.302;-121.982;2022-10-22T03:13:22;100440.0;;;24.95;42.85
48530;BME280;34927;37.302;-121.982;2022-10-22T03:14:26;100439.0;;;24.98;42.84
48530;BME280;34927;37.302;-121.982;2022-10-22T03:15:31;100440.0;;;24.97;42.79
48530;BME280;34927;37.302;-121.982;2022-10-22T03:16:37;100444.0;;;24.98;42.82
48530;BME280;34927;37.302;-121.982;2022-10-22T03:17:41;100448.0;;;24.88;42.96
48530;BME280;34927;37.302;-121.982;2022-10-22T03:18:46;100450.0;;;25.02;42.75
48530;BME280;34927;37.302;-121.982;2022-10-22T03:19:52;100453.0;;;25.01;42.66
48530;BME280;34927;37.302;-121.982;2022-10-22T03:21:03;100454.0;;;25.00;42.66
48530;BME280;34927;37.302;-121.982;2022-10-22T03:22:11;100450.0;;;25.04;42.52
48530;BME280;34927;37.302;-121.982;2022-10-22T03:23:19;100451.0;;;25.01;42.68
48530;BME280;34927;37.302;-121.982;2022-10-22T03:24:26;100449.0;;;24.98;42.70
48530;BME280;34927;37.302;-121.982;2022-10-22T03:25:32;100446.0;;;24.98;42.67
48530;BME280;34927;37.302;-121.982;2022-10-22T03:26:37;100442.0;;;24.96;42.62
48530;BME280;34927;37.302;-121.982;2022-10-22T03:27:42;100436.0;;;25.05;42.42
48530;BME280;34927;37.302;-121.982;2022-10-22T03:28:47;100433.0;;;25.01;42.48
48530;BME280;34927;37.302;-121.982;2022-10-22T03:29:52;100430.0;;;24.90;42.74
48530;BME280;34927;37.302;-121.982;2022-10-22T03:30:57;100425.0;;;24.90;42.73
48530;BME280;34927;37.302;-121.982;2022-10-22T03:32:01;100420.0;;;24.91;42.77
48530;BME280;34927;37.302;-121.982;2022-10-22T03:33:06;100415.0;;;24.82;42.88
48530;BME280;34927;37.302;-121.982;2022-10-22T03:34:12;100412.0;;;24.86;42.73
48530;BME280;34927;37.302;-121.982;2022-10-22T03:35:16;100407.0;;;24.91;42.57
48530;BME280;34927;37.302;-121.982;2022-10-22T03:36:21;100405.0;;;24.89;42.55
48530;BME280;34927;37.302;-121.982;2022-10-22T03:37:27;100400.0;;;24.89;42.52
48530;BME280;34927;37.302;-121.982;2022-10-22T03:38:33;100393.0;;;24.76;42.80
48530;BME280;34927;37.302;-121.982;2022-10-22T03:39:37;100387.0;;;24.76;42.85
48530;BME280;34927;37.302;-121.982;2022-10-22T03:40:43;100386.0;;;24.78;42.68
48530;BME280;34927;37.302;-121.982;2022-10-22T03:41:47;100382.0;;;24.73;42.98
48530;BME280;34927;37.302;-121.982;2022-10-22T03:42:52;100383.0;;;24.83;42.82
48530;BME280;34927;37.302;-121.982;2022-10-22T03:43:57;100382.0;;;24.75;42.79
48530;BME280;34927;37.302;-121.982;2022-10-22T03:45:03;100383.0;;;24.79;42.76
48530;BME280;34927;37.302;-121.982;2022-10-22T03:46:07;100380.0;;;24.82;42.69
48530;BME280;34927;37.302;-121.982;2022-10-22T03:47:12;100380.0;;;24.56;43.15
48530;BME280;34927;37.302;-121.982;2022-10-22T03:48:16;100382.0;;;24.56;43.10
48530;BME280;34927;37.302;-121.982;2022-10-22T03:49:22;100382.0;;;24.60;42.93
48530;BME280;34927;37.302;-121.982;2022-10-22T03:50:27;100382.0;;;24.60;42.98
48530;BME280;34927;37.302;-121.982;2022-10-22T03:51:32;100382.0;;;24.52;43.13
48530;BME280;34927;37.302;-121.982;2022-10-22T03:52:38;100382.0;;;24.55;43.03
48530;BME280;34927;37.302;-121.982;2022-10-22T03:53:42;100380.0;;;24.54;43.03
48530;BME280;34927;37.302;-121.982;2022-10-22T03:54:46;100380.0;;;24.41;43.34
48530;BME280;34927;37.302;-121.982;2022-10-22T03:55:52;100380.0;;;24.34;43.52
48530;BME280;34927;37.302;-121.982;2022-10-22T03:56:56;100379.0;;;24.37;43.40
48530;BME280;34927;37.302;-121.982;2022-10-22T03:58:01;100383.0;;;24.32;43.46
48530;BME280;34927;37.302;-121.982;2022-10-22T03:59:06;100385.0;;;24.35;43.30
48530;BME280;34927;37.302;-121.982;2022-10-22T04:00:12;100388.0;;;24.37;43.35
48530;BME280;34927;37.302;-121.982;2022-10-22T04:01:17;100387.0;;;24.34;43.37
48530;BME280;34927;37.302;-121.982;2022-10-22T04:02:22;100387.0;;;24.35;43.40
48530;BME280;34927;37.302;-121.982;2022-10-22T04:03:26;100387.0;;;24.43;43.21
48530;BME280;34927;37.302;-121.982;2022-10-22T04:04:33;100388.0;;;24.54;42.98
48530;BME280;34927;37.302;-121.982;2022-10-22T04:05:36;100390.0;;;24.50;43.47
48530;BME280;34927;37.302;-121.982;2022-10-22T04:06:41;100391.0;;;24.67;42.92
48530;BME280;34927;37.302;-121.982;2022-10-22T04:07:47;100394.0;;;24.55;43.10
48530;BME280;34927;37.302;-121.982;2022-10-22T04:08:51;100394.0;;;24.46;43.27
48530;BME280;34927;37.302;-121.982;2022-10-22T04:09:56;100395.0;;;24.48;43.36
48530;BME280;34927;37.302;-121.982;2022-10-22T04:11:02;100395.0;;;24.41;43.42
48530;BME280;34927;37.302;-121.982;2022-10-22T04:12:07;100395.0;;;24.38;43.61
48530;BME280;34927;37.302;-121.982;2022-10-22T04:13:12;100394.0;;;24.32;43.75
48530;BME280;34927;37.302;-121.982;2022-10-22T04:14:16;100395.0;;;24.31;43.73
48530;BME280;34927;37.302;-121.982;2022-10-22T04:15:22;100396.0;;;24.34;43.74
48530;BME280;34927;37.302;-121.982;2022-10-22T04:16:27;100399.0;;;24.37;43.66
48530;BME280;34927;37.302;-121.982;2022-10-22T04:17:34;100401.0;;;24.40;43.57
48530;BME280;34927;37.302;-121.982;2022-10-22T04:18:37;100407.0;;;24.25;43.96
48530;BME280;34927;37.302;-121.982;2022-10-22T04:19:42;100409.0;;;24.33;43.69
48530;BME280;34927;37.302;-121.982;2022-10-22T04:20:47;100409.0;;;24.32;43.69
48530;BME280;34927;37.302;-121.982;2022-10-22T04:21:52;100403.0;;;24.36;43.70
48530;BME280;34927;37.302;-121.982;2022-10-22T04:22:56;100400.0;;;24.39;43.67
48530;BME280;34927;37.302;-121.982;2022-10-22T04:24:02;100399.0;;;24.29;43.85
48530;BME280;34927;37.302;-121.982;2022-10-22T04:25:06;100398.0;;;24.27;44.03
48530;BME280;34927;37.302;-121.982;2022-10-22T04:26:13;100395.0;;;24.27;44.02
48530;BME280;34927;37.302;-121.982;2022-10-22T04:27:17;100390.0;;;24.38;43.87
48530;BME280;34927;37.302;-121.982;2022-10-22T04:28:22;100388.0;;;24.47;43.66
48530;BME280;34927;37.302;-121.982;2022-10-22T04:29:26;100388.0;;;24.55;44.54
48530;BME280;34927;37.302;-121.982;2022-10-22T04:30:32;100390.0;;;24.13;45.76
48530;BME280;34927;37.302;-121.982;2022-10-22T04:31:36;100392.0;;;23.99;46.45
48530;BME280;34927;37.302;-121.982;2022-10-22T04:32:41;100394.0;;;23.88;46.77
48530;BME280;34927;37.302;-121.982;2022-10-22T04:33:50;100398.0;;;23.85;46.88
48530;BME280;34927;37.302;-121.982;2022-10-22T04:34:57;100399.0;;;23.81;47.02
48530;BME280;34927;37.302;-121.982;2022-10-22T04:36:06;100403.0;;;23.84;46.87
48530;BME280;34927;37.302;-121.982;2022-10-22T04:37:12;100400.0;;;23.89;46.60
48530;BME280;34927;37.302;-121.982;2022-10-22T04:38:16;100399.0;;;23.92;46.82
48530;BME280;34927;37.302;-121.982;2022-10-22T04:39:22;100395.0;;;23.95;46.57
48530;BME280;34927;37.302;-121.982;2022-10-22T04:40:26;100390.0;;;24.00;46.43
48530;BME280;34927;37.302;-121.982;2022-10-22T04:41:33;100387.0;;;23.85;46.57
48530;BME280;34927;37.302;-121.982;2022-10-22T04:42:37;100385.0;;;23.79;46.77
48530;BME280;34927;37.302;-121.982;2022-10-22T04:43:41;100383.0;;;23.87;46.63
48530;BME280;34927;37.302;-121.982;2022-10-22T04:44:47;100383.0;;;23.84;46.52
48530;BME280;34927;37.302;-121.982;2022-10-22T04:45:51;100381.0;;;23.84;46.67
48530;BME280;34927;37.302;-121.982;2022-10-22T04:46:57;100381.0;;;23.80;46.66
48530;BME280;34927;37.302;-121.982;2022-10-22T04:48:02;100383.0;;;23.85;46.48
48530;BME280;34927;37.302;-121.982;2022-10-22T04:49:06;100382.0;;;23.72;46.83
48530;BME280;34927;37.302;-121.982;2022-10-22T04:50:12;100387.0;;;23.81;46.71
48530;BME280;34927;37.302;-121.982;2022-10-22T04:51:18;100389.0;;;23.77;46.65
48530;BME280;34927;37.302;-121.982;2022-10-22T04:52:21;100393.0;;;23.81;46.51
48530;BME280;34927;37.302;-121.982;2022-10-22T04:53:26;100390.0;;;23.76;46.82
48530;BME280;34927;37.302;-121.982;2022-10-22T04:54:32;100388.0;;;23.74;46.72
48530;BME280;34927;37.302;-121.982;2022-10-22T04:55:37;100386.0;;;23.71;46.78
48530;BME280;34927;37.302;-121.982;2022-10-22T04:56:42;100387.0;;;23.76;46.62
48530;BME280;34927;37.302;-121.982;2022-10-22T04:57:46;100383.0;;;23.75;46.73
48530;BME280;34927;37.302;-121.982;2022-10-22T04:58:53;100382.0;;;24.02;46.06
48530;BME280;34927;37.302;-121.982;2022-10-22T04:59:56;100382.0;;;24.16;45.70
48530;BME280;34927;37.302;-121.982;2022-10-22T05:01:10;100381.0;;;24.00;45.98
48530;BME280;34927;37.302;-121.982;2022-10-22T05:02:17;100381.0;;;23.86;46.31
48530;BME280;34927;37.302;-121.982;2022-10-22T05:03:24;100383.0;;;23.84;46.24
48530;BME280;34927;37.302;-121.982;2022-10-22T05:04:27;100385.0;;;23.83;46.31
48530;BME280;34927;37.302;-121.982;2022-10-22T05:05:33;100386.0;;;23.89;46.15
48530;BME280;34927;37.302;-121.982;2022-10-22T05:06:37;100384.0;;;23.82;46.21
48530;BME280;34927;37.302;-121.982;2022-10-22T05:07:43;100379.0;;;23.87;46.26
48530;BME280;34927;37.302;-121.982;2022-10-22T05:08:47;100375.0;;;23.79;46.37
48530;BME280;34927;37.302;-121.982;2022-10-22T05:09:57;100376.0;;;23.83;46.28
48530;BME280;34927;37.302;-121.982;2022-10-22T05:11:10;100376.0;;;23.93;45.95
48530;BME280;34927;37.302;-121.982;2022-10-22T05:12:17;100372.0;;;23.88;46.06
48530;BME280;34927;37.302;-121.982;2022-10-22T05:13:21;100371.0;;;23.96;45.88
48530;BME280;34927;37.302;-121.982;2022-10-22T05:14:26;100370.0;;;23.85;46.03
48530;BME280;34927;37.302;-121.982;2022-10-22T05:15:32;100367.0;;;23.91;45.76
48530;BME280;34927;37.302;-121.982;2022-10-22T05:16:37;100368.0;;;23.99;45.62
48530;BME280;34927;37.302;-121.982;2022-10-22T05:17:41;100369.0;;;23.94;45.56
48530;BME280;34927;37.302;-121.982;2022-10-22T05:18:47;100364.0;;;23.87;45.77
48530;BME280;34927;37.302;-121.982;2022-10-22T05:19:52;100361.0;;;23.87;45.82
48530;BME280;34927;37.302;-121.982;2022-10-22T05:20:56;100357.0;;;23.91;45.69
48530;BME280;34927;37.302;-121.982;2022-10-22T05:22:03;100358.0;;;23.94;45.71
48530;BME280;34927;37.302;-121.982;2022-10-22T05:23:08;100359.0;;;23.92;45.72
48530;BME280;34927;37.302;-121.982;2022-10-22T05:24:12;100358.0;;;23.86;45.80
48530;BME280;34927;37.302;-121.982;2022-10-22T05:25:17;100359.0;;;23.80;45.86
48530;BME280;34927;37.302;-121.982;2022-10-22T05:26:22;100359.0;;;23.84;45.76
48530;BME280;34927;37.302;-121.982;2022-10-22T05:27:27;100361.0;;;23.79;45.91
48530;BME280;34927;37.302;-121.982;2022-10-22T05:28:32;100360.0;;;23.82;45.71
48530;BME280;34927;37.302;-121.982;2022-10-22T05:29:36;100358.0;;;23.96;45.53
48530;BME280;34927;37.302;-121.982;2022-10-22T05:30:41;100358.0;;;24.05;45.20
48530;BME280;34927;37.302;-121.982;2022-10-22T05:31:56;100357.0;;;23.90;45.43
48530;BME280;34927;37.302;-121.982;2022-10-22T05:33:01;100359.0;;;23.91;45.56
48530;BME280;34927;37.302;-121.982;2022-10-22T05:34:07;100363.0;;;23.82;45.70
48530;BME280;34927;37.302;-121.982;2022-10-22T05:35:11;100362.0;;;23.86;45.59
48530;BME280;34927;37.302;-121.982;2022-10-22T05:36:19;100363.0;;;23.85;45.65
48530;BME280;34927;37.302;-121.982;2022-10-22T05:37:21;100363.0;;;23.88;45.65
48530;BME280;34927;37.302;-121.982;2022-10-22T05:38:27;100366.0;;;23.80;45.71
48530;BME280;34927;37.302;-121.982;2022-10-22T05:39:32;100365.0;;;23.77;45.64
48530;BME280;34927;37.302;-121.982;2022-10-22T05:40:37;100361.0;;;23.74;45.91
48530;BME280;34927;37.302;-121.982;2022-10-22T05:41:42;100360.0;;;23.78;45.60
48530;BME280;34927;37.302;-121.982;2022-10-22T05:42:46;100353.0;;;23.80;45.60